Scottown, Ohio
Current Conditions -  °F | °C
As of 8:51 PM on Saturday 22 Nov 2014 (Local Time) from KHTS Reporting Station
Broken Clouds Broken Clouds  
Wind Chill: 52°   Ceiling: 10000
Heat Index: 52°   Visibility: 10mi
Dew Point: 23°   Wind: 6mph
Humidity: 32%   Direction: 180°S
Pressure: 30.14"   Gusts: NA
Location:  38.55°N, 82.39°W
Report Text: KHTS 230151Z 18005KT 10SM BKN100 11/M05 A3014 RMK AO2 SLP211 T01111050
Loading
Personal Weather Stations






























Interactive Weather Map New forecast layout! Learn more

10-Day Weather Forecast

Advertisements
Track Severe Weather on mobile